Fargo, ND (58102)

12:57 PM CDT on October 21, 2014 (GMT -0500)
Hector International | Change Station
CLOSE
Current Station
Airport
Location: Fargo,
Elevation: 899 ft
Nearby Weather Stations

Elev 899 ft 46.91 °N, 96.81 °W | Updated 4 minutes ago

Light Rain
Light Rain
63 °F
Feels Like 63 °F
N
23
Wind Variable Wind from SE
Gusts 37 mph

Today
High -- | Low -- °F
--% Chance of Precip.
Yesterday
High -- | Low -- °F
Precip. -- in
7:53 AM 6:29 PM
Waning Crescent, 5% visible
Pressure 29.97 in
Visibility 10.0 miles
Clouds Clear
Dew Point 42 °F
Humidity 46%
Rainfall 0.00 in
Snow Depth Not available.
UV 4 out of 12
Pollen 2.30 out of 12
Air Quality Not available.
Flu Activity Local Activity
METAR KFAR 211753Z 14020G32KT 10SM -RA CLR 17/06 A2996 RMK AO2 PK WND 14032/1750 RAB1655E00B32 SLP149 P0000 60000 T01720056 10172 20067 57019

More Conditions Fewer Conditions

Pressure 29.97 in
Visibility 10.0 miles
Clouds Clear
Dew Point 42 °F
Humidity 46%
Rainfall 0.00 in
Snow Depth Not available.
UV 4 out of 12
Pollen 2.30 out of 12
Air Quality Not available.
Flu Activity Local Activity
METAR KFAR 211753Z 14020G32KT 10SM -RA CLR 17/06 A2996 RMK AO2 PK WND 14032/1750 RAB1655E00B32 SLP149 P0000 60000 T01720056 10172 20067 57019

More Conditions Fewer Conditions

10-Day Weather Forecast

Almanac

Astronomy

Oct. 21, 2014 Rise Set
Actual Time 7:53 AM CDT 6:29 PM CDT
Civil Twilight 7:22 AM CDT 7:00 PM CDT
Nautical Twilight 6:47 AM CDT 7:35 PM CDT
Astronomical Twilight 6:12 AM CDT 8:10 PM CDT
Moon 5:31 AM CDT 5:30 PM CDT
Length of Visible Light 11h 37m
Length of Day
10h 35m
Tomorrow will be 3m 11s shorter.
Waning Crescent, 5% of the Moon is Illuminated
Today
Waning Crescent
Oct 23
New
Oct 30
First Quarter
Nov 6
Full
Nov 14
Last Quarter

Today's Extremes

State Highs State Lows

Community

WunderPhotos

Upload Photos

1,763,733 photos uploaded!

Nearby

Snow Depth

Station Depth Elevation
No new snow has been reported.

Earthquake Activity

City Distance Mag. Time & Date
No recent earthquake activity has been reported nearby.
Minimum magnitude displayed is 2.5.

Coastal Water Temperatures

Place Temperature
No Stations Reporting

Nearby Weather Stations